DLE weather

Dole-Tavaux Airport
Dole/Tavaux, Bourgogne-Franche-Comté, France

Public forecast

Using degrees Celsius for public forecast. Weather courtesy of forecast.io.

Current aviation weather report (METAR) for Dole-Tavaux Airport

Retrieved 2019/11/13 18:30 UTC (21 minutes ago):

LFGJ 131830Z AUTO 17007KT 9999 FEW035 BKN041 OVC048 06/05 Q1006

Closest aviation forecast (TAF) to Dole-Tavaux Airport

Forecast is more than 12 hours old.

Closest forecast is Dijon-Bourgogne Airport, 19.6 nm (36.2 km) NW. Retrieved 2015/06/01 00:11 UTC (4 years ago):

TAF LFSD 010600Z 0100/0124 CNL